sensor_id;sensor_type;location;lat;lon;timestamp;pressure;altitude;pressure_sealevel;temperature;humidity
1832;BME280;1680;48.106;11.708;2023-05-29T00:02:20;95467.88;;;12.94;79.80
1832;BME280;1680;48.106;11.708;2023-05-29T00:04:48;95466.59;;;12.97;79.68
1832;BME280;1680;48.106;11.708;2023-05-29T00:07:16;95442.94;;;12.69;80.14
1832;BME280;1680;48.106;11.708;2023-05-29T00:09:43;95469.28;;;12.85;80.49
1832;BME280;1680;48.106;11.708;2023-05-29T00:12:10;95464.75;;;12.81;79.99
1832;BME280;1680;48.106;11.708;2023-05-29T00:14:39;95465.78;;;12.80;80.41
1832;BME280;1680;48.106;11.708;2023-05-29T00:17:06;95466.56;;;12.80;80.24
1832;BME280;1680;48.106;11.708;2023-05-29T00:19:33;95413.56;;;12.44;80.25
1832;BME280;1680;48.106;11.708;2023-05-29T00:22:03;95467.50;;;12.74;80.61
1832;BME280;1680;48.106;11.708;2023-05-29T00:24:30;95473.00;;;12.73;81.06
1832;BME280;1680;48.106;11.708;2023-05-29T00:26:57;95464.84;;;12.58;81.37
1832;BME280;1680;48.106;11.708;2023-05-29T00:29:24;95467.31;;;12.48;82.19
1832;BME280;1680;48.106;11.708;2023-05-29T00:31:52;95474.81;;;12.56;82.34
1832;BME280;1680;48.106;11.708;2023-05-29T00:34:22;95469.63;;;12.61;81.39
1832;BME280;1680;48.106;11.708;2023-05-29T00:36:50;95468.50;;;12.57;81.74
1832;BME280;1680;48.106;11.708;2023-05-29T00:39:19;95464.47;;;12.38;82.39
1832;BME280;1680;48.106;11.708;2023-05-29T00:41:47;95458.16;;;12.39;82.96
1832;BME280;1680;48.106;11.708;2023-05-29T00:44:17;95472.28;;;12.33;83.61
1832;BME280;1680;48.106;11.708;2023-05-29T00:46:45;95453.38;;;12.36;82.86
1832;BME280;1680;48.106;11.708;2023-05-29T00:49:13;95459.41;;;12.20;83.80
1832;BME280;1680;48.106;11.708;2023-05-29T00:51:41;95457.69;;;12.14;84.61
1832;BME280;1680;48.106;11.708;2023-05-29T00:54:11;95463.88;;;12.08;84.60
1832;BME280;1680;48.106;11.708;2023-05-29T00:56:41;95451.47;;;11.92;84.93
1832;BME280;1680;48.106;11.708;2023-05-29T00:59:09;95460.31;;;12.14;84.28
1832;BME280;1680;48.106;11.708;2023-05-29T01:01:37;95460.28;;;12.26;82.85
1832;BME280;1680;48.106;11.708;2023-05-29T01:04:06;95453.34;;;12.20;83.42
1832;BME280;1680;48.106;11.708;2023-05-29T01:06:33;95455.38;;;12.18;83.74
1832;BME280;1680;48.106;11.708;2023-05-29T01:09:01;95457.66;;;11.86;85.32
1832;BME280;1680;48.106;11.708;2023-05-29T01:11:35;95469.19;;;11.85;85.67
1832;BME280;1680;48.106;11.708;2023-05-29T01:14:08;95461.34;;;12.13;84.04
1832;BME280;1680;48.106;11.708;2023-05-29T01:16:42;95466.56;;;11.97;85.16
1832;BME280;1680;48.106;11.708;2023-05-29T01:19:32;95466.69;;;11.90;85.01
1832;BME280;1680;48.106;11.708;2023-05-29T01:22:11;95464.97;;;11.84;85.61
1832;BME280;1680;48.106;11.708;2023-05-29T01:24:49;95475.94;;;11.93;85.52
1832;BME280;1680;48.106;11.708;2023-05-29T01:27:19;95465.28;;;11.99;84.97
1832;BME280;1680;48.106;11.708;2023-05-29T01:29:50;95471.38;;;11.88;85.27
1832;BME280;1680;48.106;11.708;2023-05-29T01:32:19;95469.78;;;11.87;84.93
1832;BME280;1680;48.106;11.708;2023-05-29T01:34:47;95464.06;;;11.79;85.29
1832;BME280;1680;48.106;11.708;2023-05-29T01:37:14;95468.41;;;11.73;86.15
1832;BME280;1680;48.106;11.708;2023-05-29T01:39:41;95463.81;;;11.80;85.63
1832;BME280;1680;48.106;11.708;2023-05-29T01:42:09;95469.56;;;11.55;86.34
1832;BME280;1680;48.106;11.708;2023-05-29T01:44:39;95466.72;;;11.56;86.59
1832;BME280;1680;48.106;11.708;2023-05-29T01:47:07;95466.34;;;11.53;86.79
1832;BME280;1680;48.106;11.708;2023-05-29T01:49:36;95467.38;;;11.52;87.11
1832;BME280;1680;48.106;11.708;2023-05-29T01:52:04;95464.41;;;11.48;86.69
1832;BME280;1680;48.106;11.708;2023-05-29T01:54:32;95469.91;;;11.35;87.64
1832;BME280;1680;48.106;11.708;2023-05-29T01:56:59;95442.03;;;11.11;88.02
1832;BME280;1680;48.106;11.708;2023-05-29T01:59:27;95466.00;;;11.26;88.20
1832;BME280;1680;48.106;11.708;2023-05-29T02:01:56;95468.16;;;11.29;87.88
1832;BME280;1680;48.106;11.708;2023-05-29T02:04:23;95476.16;;;11.23;88.39
1832;BME280;1680;48.106;11.708;2023-05-29T02:06:51;95467.47;;;11.11;88.88
1832;BME280;1680;48.106;11.708;2023-05-29T02:09:20;95478.69;;;11.41;86.53
1832;BME280;1680;48.106;11.708;2023-05-29T02:11:48;95473.44;;;11.41;86.86
1832;BME280;1680;48.106;11.708;2023-05-29T02:14:15;95476.63;;;11.43;86.73
1832;BME280;1680;48.106;11.708;2023-05-29T02:16:42;95459.50;;;11.29;87.50
1832;BME280;1680;48.106;11.708;2023-05-29T02:19:11;95461.56;;;11.27;87.37
1832;BME280;1680;48.106;11.708;2023-05-29T02:21:39;95451.97;;;11.21;87.56
1832;BME280;1680;48.106;11.708;2023-05-29T02:24:06;95460.41;;;11.23;87.14
1832;BME280;1680;48.106;11.708;2023-05-29T02:26:33;95463.38;;;11.15;87.91
1832;BME280;1680;48.106;11.708;2023-05-29T02:29:02;95457.44;;;11.08;87.95
1832;BME280;1680;48.106;11.708;2023-05-29T02:31:31;95451.72;;;11.11;88.22
1832;BME280;1680;48.106;11.708;2023-05-29T02:33:58;95452.28;;;11.01;88.72
1832;BME280;1680;48.106;11.708;2023-05-29T02:36:27;95446.00;;;10.91;89.96
1832;BME280;1680;48.106;11.708;2023-05-29T02:38:54;95451.38;;;10.96;89.98
1832;BME280;1680;48.106;11.708;2023-05-29T02:41:21;95458.19;;;10.85;90.59
1832;BME280;1680;48.106;11.708;2023-05-29T02:43:48;95453.06;;;10.79;90.74
1832;BME280;1680;48.106;11.708;2023-05-29T02:46:16;95453.75;;;10.86;90.02
1832;BME280;1680;48.106;11.708;2023-05-29T02:48:43;95434.59;;;10.85;88.28
1832;BME280;1680;48.106;11.708;2023-05-29T02:51:10;95448.03;;;10.89;89.74
1832;BME280;1680;48.106;11.708;2023-05-29T02:53:38;95448.03;;;10.89;89.16
1832;BME280;1680;48.106;11.708;2023-05-29T02:56:07;95448.16;;;10.82;89.79
1832;BME280;1680;48.106;11.708;2023-05-29T02:58:34;95417.81;;;10.34;90.38
1832;BME280;1680;48.106;11.708;2023-05-29T03:01:01;95457.34;;;10.62;91.12
1832;BME280;1680;48.106;11.708;2023-05-29T03:03:29;95461.44;;;10.58;91.07
1832;BME280;1680;48.106;11.708;2023-05-29T03:05:56;95466.66;;;10.58;91.11
1832;BME280;1680;48.106;11.708;2023-05-29T03:08:24;95458.94;;;10.63;90.16
1832;BME280;1680;48.106;11.708;2023-05-29T03:10:54;95455.41;;;10.58;90.72
1832;BME280;1680;48.106;11.708;2023-05-29T03:13:22;95464.81;;;10.47;91.45
1832;BME280;1680;48.106;11.708;2023-05-29T03:15:49;95459.56;;;10.47;91.42
1832;BME280;1680;48.106;11.708;2023-05-29T03:18:22;95463.44;;;10.45;91.11
1832;BME280;1680;48.106;11.708;2023-05-29T03:20:49;95461.44;;;10.58;90.69
1832;BME280;1680;48.106;11.708;2023-05-29T03:23:16;95462.69;;;10.56;91.16
1832;BME280;1680;48.106;11.708;2023-05-29T03:25:43;95471.03;;;10.64;90.29
1832;BME280;1680;48.106;11.708;2023-05-29T03:28:12;95450.00;;;10.53;90.43
1832;BME280;1680;48.106;11.708;2023-05-29T03:30:39;95462.78;;;10.49;91.13
1832;BME280;1680;48.106;11.708;2023-05-29T03:33:06;95467.78;;;10.51;91.64
1832;BME280;1680;48.106;11.708;2023-05-29T03:35:33;95468.81;;;10.50;91.66
1832;BME280;1680;48.106;11.708;2023-05-29T03:38:01;95470.66;;;10.49;91.58
1832;BME280;1680;48.106;11.708;2023-05-29T03:40:28;95462.53;;;10.39;91.95
1832;BME280;1680;48.106;11.708;2023-05-29T03:42:55;95474.72;;;10.45;91.69
1832;BME280;1680;48.106;11.708;2023-05-29T03:45:23;95477.06;;;10.53;90.34
1832;BME280;1680;48.106;11.708;2023-05-29T03:47:51;95473.69;;;10.46;91.18
1832;BME280;1680;48.106;11.708;2023-05-29T03:50:18;95473.00;;;10.39;91.50
1832;BME280;1680;48.106;11.708;2023-05-29T03:52:45;95479.09;;;10.51;90.83
1832;BME280;1680;48.106;11.708;2023-05-29T03:55:12;95490.06;;;10.60;90.57
1832;BME280;1680;48.106;11.708;2023-05-29T03:57:40;95482.16;;;10.48;90.90
1832;BME280;1680;48.106;11.708;2023-05-29T04:00:08;95485.34;;;10.50;91.15
1832;BME280;1680;48.106;11.708;2023-05-29T04:02:38;95476.22;;;10.41;91.78
1832;BME280;1680;48.106;11.708;2023-05-29T04:05:06;95479.84;;;10.40;92.72
1832;BME280;1680;48.106;11.708;2023-05-29T04:07:34;95486.38;;;10.49;92.38
1832;BME280;1680;48.106;11.708;2023-05-29T04:10:02;95468.22;;;10.36;92.94
1832;BME280;1680;48.106;11.708;2023-05-29T04:12:30;95495.59;;;10.40;93.60
1832;BME280;1680;48.106;11.708;2023-05-29T04:14:57;95497.88;;;10.48;93.62
1832;BME280;1680;48.106;11.708;2023-05-29T04:17:24;95493.72;;;10.59;92.79
1832;BME280;1680;48.106;11.708;2023-05-29T04:19:52;95503.53;;;10.63;92.46
1832;BME280;1680;48.106;11.708;2023-05-29T04:22:20;95507.41;;;10.61;92.90
1832;BME280;1680;48.106;11.708;2023-05-29T04:24:47;95501.91;;;10.62;93.11
1832;BME280;1680;48.106;11.708;2023-05-29T04:27:14;95521.78;;;10.69;93.19
1832;BME280;1680;48.106;11.708;2023-05-29T04:29:42;95516.88;;;10.73;93.03
1832;BME280;1680;48.106;11.708;2023-05-29T04:32:09;95511.88;;;10.71;92.91
1832;BME280;1680;48.106;11.708;2023-05-29T04:34:37;95517.38;;;10.70;93.10
1832;BME280;1680;48.106;11.708;2023-05-29T04:37:06;95523.38;;;10.70;93.36
1832;BME280;1680;48.106;11.708;2023-05-29T04:39:33;95516.44;;;10.76;93.91
1832;BME280;1680;48.106;11.708;2023-05-29T04:42:01;95525.97;;;10.88;93.75
1832;BME280;1680;48.106;11.708;2023-05-29T04:44:28;95517.06;;;10.89;93.68
1832;BME280;1680;48.106;11.708;2023-05-29T04:46:55;95529.59;;;10.87;93.88
1832;BME280;1680;48.106;11.708;2023-05-29T04:49:23;95536.59;;;11.05;92.87
1832;BME280;1680;48.106;11.708;2023-05-29T04:51:50;95515.59;;;11.05;92.90
1832;BME280;1680;48.106;11.708;2023-05-29T04:54:21;95533.91;;;11.23;92.12
1832;BME280;1680;48.106;11.708;2023-05-29T04:56:49;95535.50;;;11.24;92.39
1832;BME280;1680;48.106;11.708;2023-05-29T04:59:16;95532.09;;;11.35;92.70
1832;BME280;1680;48.106;11.708;2023-05-29T05:01:43;95540.53;;;11.37;92.63
1832;BME280;1680;48.106;11.708;2023-05-29T05:04:12;95533.25;;;11.39;93.30
1832;BME280;1680;48.106;11.708;2023-05-29T05:06:40;95528.59;;;11.52;93.11
1832;BME280;1680;48.106;11.708;2023-05-29T05:09:09;95534.88;;;11.62;92.79
1832;BME280;1680;48.106;11.708;2023-05-29T05:11:37;95533.97;;;11.68;92.68
1832;BME280;1680;48.106;11.708;2023-05-29T05:14:04;95538.31;;;11.74;92.14
1832;BME280;1680;48.106;11.708;2023-05-29T05:16:32;95539.13;;;11.86;92.07
1832;BME280;1680;48.106;11.708;2023-05-29T05:18:59;95545.03;;;11.93;92.03
1832;BME280;1680;48.106;11.708;2023-05-29T05:21:26;95537.38;;;12.03;91.78
1832;BME280;1680;48.106;11.708;2023-05-29T05:23:56;95547.53;;;12.11;91.58
1832;BME280;1680;48.106;11.708;2023-05-29T05:26:23;95537.72;;;12.18;91.70
1832;BME280;1680;48.106;11.708;2023-05-29T05:28:53;95548.88;;;12.37;91.29
1832;BME280;1680;48.106;11.708;2023-05-29T05:31:21;95550.97;;;12.51;90.79
1832;BME280;1680;48.106;11.708;2023-05-29T05:33:48;95550.88;;;12.57;88.50
1832;BME280;1680;48.106;11.708;2023-05-29T05:36:15;95545.47;;;12.64;87.35
1832;BME280;1680;48.106;11.708;2023-05-29T05:38:43;95558.41;;;12.82;86.56
1832;BME280;1680;48.106;11.708;2023-05-29T05:41:10;95557.38;;;12.94;86.60
1832;BME280;1680;48.106;11.708;2023-05-29T05:43:37;95550.38;;;13.00;86.32
1832;BME280;1680;48.106;11.708;2023-05-29T05:46:05;95548.66;;;13.22;86.59
1832;BME280;1680;48.106;11.708;2023-05-29T05:48:33;95543.56;;;13.32;86.64
1832;BME280;1680;48.106;11.708;2023-05-29T05:51:00;95557.84;;;13.36;87.36
1832;BME280;1680;48.106;11.708;2023-05-29T05:53:27;95552.84;;;13.51;87.23
1832;BME280;1680;48.106;11.708;2023-05-29T05:55:54;95552.50;;;13.63;87.16
1832;BME280;1680;48.106;11.708;2023-05-29T05:58:21;95559.03;;;13.77;86.50
1832;BME280;1680;48.106;11.708;2023-05-29T06:00:49;95564.06;;;13.95;85.56
1832;BME280;1680;48.106;11.708;2023-05-29T06:03:19;95548.31;;;14.17;85.31
1832;BME280;1680;48.106;11.708;2023-05-29T06:05:46;95556.72;;;14.35;83.74
1832;BME280;1680;48.106;11.708;2023-05-29T06:08:14;95552.69;;;14.49;82.92
1832;BME280;1680;48.106;11.708;2023-05-29T06:10:41;95543.72;;;14.50;82.77
1832;BME280;1680;48.106;11.708;2023-05-29T06:13:09;95563.59;;;14.79;81.51
1832;BME280;1680;48.106;11.708;2023-05-29T06:15:36;95562.72;;;14.95;80.16
1832;BME280;1680;48.106;11.708;2023-05-29T06:18:04;95568.78;;;15.17;79.68
1832;BME280;1680;48.106;11.708;2023-05-29T06:20:33;95564.94;;;15.29;79.65
1832;BME280;1680;48.106;11.708;2023-05-29T06:23:00;95567.72;;;15.44;79.61
1832;BME280;1680;48.106;11.708;2023-05-29T06:25:27;95560.69;;;15.54;79.05
1832;BME280;1680;48.106;11.708;2023-05-29T06:27:58;95577.38;;;15.60;79.24
1832;BME280;1680;48.106;11.708;2023-05-29T06:30:26;95577.22;;;15.71;78.96
1832;BME280;1680;48.106;11.708;2023-05-29T06:32:53;95567.03;;;15.85;78.85
1832;BME280;1680;48.106;11.708;2023-05-29T06:35:20;95573.19;;;16.00;77.94
1832;BME280;1680;48.106;11.708;2023-05-29T06:37:49;95574.34;;;16.14;77.08
1832;BME280;1680;48.106;11.708;2023-05-29T06:40:16;95511.22;;;15.86;76.24
1832;BME280;1680;48.106;11.708;2023-05-29T06:42:43;95581.22;;;16.52;74.92
1832;BME280;1680;48.106;11.708;2023-05-29T06:45:10;95580.19;;;16.57;76.15
1832;BME280;1680;48.106;11.708;2023-05-29T06:47:39;95575.25;;;16.81;74.86
1832;BME280;1680;48.106;11.708;2023-05-29T06:50:07;95570.47;;;16.78;73.49
1832;BME280;1680;48.106;11.708;2023-05-29T06:52:35;95580.03;;;16.89;73.08
1832;BME280;1680;48.106;11.708;2023-05-29T06:55:04;95583.00;;;17.02;72.13
1832;BME280;1680;48.106;11.708;2023-05-29T06:57:31;95595.00;;;17.25;71.72
1832;BME280;1680;48.106;11.708;2023-05-29T06:59:58;95585.03;;;17.56;70.38
1832;BME280;1680;48.106;11.708;2023-05-29T07:02:25;95592.44;;;17.64;70.62
1832;BME280;1680;48.106;11.708;2023-05-29T07:04:53;95593.00;;;17.86;69.76
1832;BME280;1680;48.106;11.708;2023-05-29T07:07:20;95586.09;;;17.90;69.74
1832;BME280;1680;48.106;11.708;2023-05-29T07:09:47;95589.81;;;17.84;66.99
1832;BME280;1680;48.106;11.708;2023-05-29T07:12:16;95580.25;;;18.23;65.92
1832;BME280;1680;48.106;11.708;2023-05-29T07:14:43;95557.13;;;18.29;69.67
1832;BME280;1680;48.106;11.708;2023-05-29T07:17:13;95584.47;;;18.44;63.97
1832;BME280;1680;48.106;11.708;2023-05-29T07:19:40;95578.09;;;18.40;65.25
1832;BME280;1680;48.106;11.708;2023-05-29T07:22:07;95593.69;;;18.61;65.58
1832;BME280;1680;48.106;11.708;2023-05-29T07:24:35;95584.66;;;18.72;62.85
1832;BME280;1680;48.106;11.708;2023-05-29T07:27:02;95588.03;;;18.88;63.29
1832;BME280;1680;48.106;11.708;2023-05-29T07:29:31;95596.53;;;18.95;62.66
1832;BME280;1680;48.106;11.708;2023-05-29T07:31:59;95601.28;;;18.98;62.63
1832;BME280;1680;48.106;11.708;2023-05-29T07:34:26;95593.88;;;18.85;62.95
1832;BME280;1680;48.106;11.708;2023-05-29T07:36:58;95608.97;;;19.14;61.39
1832;BME280;1680;48.106;11.708;2023-05-29T07:39:26;95605.47;;;19.19;62.72
1832;BME280;1680;48.106;11.708;2023-05-29T07:41:54;95600.16;;;19.19;63.37
1832;BME280;1680;48.106;11.708;2023-05-29T07:44:21;95605.38;;;19.34;62.75
1832;BME280;1680;48.106;11.708;2023-05-29T07:46:49;95606.38;;;19.43;62.27
1832;BME280;1680;48.106;11.708;2023-05-29T07:49:17;95612.19;;;19.54;60.80
1832;BME280;1680;48.106;11.708;2023-05-29T07:51:44;95608.78;;;19.44;61.84
1832;BME280;1680;48.106;11.708;2023-05-29T07:54:11;95608.50;;;19.51;61.55
1832;BME280;1680;48.106;11.708;2023-05-29T07:56:38;95613.81;;;19.51;61.61
1832;BME280;1680;48.106;11.708;2023-05-29T07:59:07;95615.31;;;19.61;61.22
1832;BME280;1680;48.106;11.708;2023-05-29T08:01:34;95613.19;;;19.63;61.40
1832;BME280;1680;48.106;11.708;2023-05-29T08:04:02;95613.19;;;19.63;61.51
1832;BME280;1680;48.106;11.708;2023-05-29T08:06:30;95608.50;;;19.89;60.71
1832;BME280;1680;48.106;11.708;2023-05-29T08:08:58;95606.00;;;20.02;59.39
1832;BME280;1680;48.106;11.708;2023-05-29T08:11:25;95611.50;;;20.16;59.72
1832;BME280;1680;48.106;11.708;2023-05-29T08:13:52;95602.06;;;20.28;59.87
1832;BME280;1680;48.106;11.708;2023-05-29T08:16:20;95601.94;;;20.43;59.34
1832;BME280;1680;48.106;11.708;2023-05-29T08:18:47;95597.16;;;20.40;58.60
1832;BME280;1680;48.106;11.708;2023-05-29T08:21:16;95608.28;;;20.70;59.35
1832;BME280;1680;48.106;11.708;2023-05-29T08:23:43;95614.81;;;20.88;59.22
1832;BME280;1680;48.106;11.708;2023-05-29T08:26:10;95618.41;;;20.97;59.02
1832;BME280;1680;48.106;11.708;2023-05-29T08:28:38;95612.56;;;20.95;58.32
1832;BME280;1680;48.106;11.708;2023-05-29T08:31:05;95612.88;;;20.93;56.25
1832;BME280;1680;48.106;11.708;2023-05-29T08:33:33;95608.31;;;20.94;55.77
1832;BME280;1680;48.106;11.708;2023-05-29T08:36:02;95595.50;;;20.96;57.05
1832;BME280;1680;48.106;11.708;2023-05-29T08:38:30;95615.09;;;21.28;57.47
1832;BME280;1680;48.106;11.708;2023-05-29T08:40:58;95607.13;;;21.47;55.63
1832;BME280;1680;48.106;11.708;2023-05-29T08:43:29;95611.63;;;21.28;55.04
1832;BME280;1680;48.106;11.708;2023-05-29T08:45:59;95607.44;;;21.63;54.44
1832;BME280;1680;48.106;11.708;2023-05-29T08:48:27;95615.31;;;21.73;55.33
1832;BME280;1680;48.106;11.708;2023-05-29T08:50:56;95608.03;;;21.55;54.88
1832;BME280;1680;48.106;11.708;2023-05-29T08:53:24;95605.84;;;21.81;54.08
1832;BME280;1680;48.106;11.708;2023-05-29T08:55:53;95610.13;;;21.63;53.40
1832;BME280;1680;48.106;11.708;2023-05-29T08:58:22;95610.69;;;21.79;54.63
1832;BME280;1680;48.106;11.708;2023-05-29T09:00:50;95601.13;;;21.73;53.73
1832;BME280;1680;48.106;11.708;2023-05-29T09:03:17;95607.56;;;21.90;52.74
1832;BME280;1680;48.106;11.708;2023-05-29T09:05:46;95600.72;;;21.84;53.95
1832;BME280;1680;48.106;11.708;2023-05-29T09:08:14;95610.00;;;22.05;56.06
1832;BME280;1680;48.106;11.708;2023-05-29T09:10:42;95612.22;;;22.17;53.73
1832;BME280;1680;48.106;11.708;2023-05-29T09:13:11;95610.59;;;22.02;51.47
1832;BME280;1680;48.106;11.708;2023-05-29T09:15:39;95610.84;;;22.19;51.89
1832;BME280;1680;48.106;11.708;2023-05-29T09:18:08;95604.91;;;22.22;50.80
1832;BME280;1680;48.106;11.708;2023-05-29T09:20:36;95593.41;;;22.08;51.44
1832;BME280;1680;48.106;11.708;2023-05-29T09:23:06;95594.94;;;22.28;50.86
1832;BME280;1680;48.106;11.708;2023-05-29T09:25:38;95601.06;;;22.47;51.99
1832;BME280;1680;48.106;11.708;2023-05-29T09:28:08;95605.31;;;22.29;47.63
1832;BME280;1680;48.106;11.708;2023-05-29T09:30:38;95603.72;;;22.28;48.60
1832;BME280;1680;48.106;11.708;2023-05-29T09:33:07;95604.31;;;22.57;47.90
1832;BME280;1680;48.106;11.708;2023-05-29T09:35:36;95603.88;;;22.82;46.49
1832;BME280;1680;48.106;11.708;2023-05-29T09:38:03;95598.53;;;23.09;46.47
1832;BME280;1680;48.106;11.708;2023-05-29T09:40:32;95596.22;;;22.89;43.30
1832;BME280;1680;48.106;11.708;2023-05-29T09:43:03;95608.13;;;22.83;43.60
1832;BME280;1680;48.106;11.708;2023-05-29T09:45:33;95604.25;;;22.89;44.81
1832;BME280;1680;48.106;11.708;2023-05-29T09:48:01;95605.03;;;23.03;45.10
1832;BME280;1680;48.106;11.708;2023-05-29T09:50:29;95614.19;;;23.15;43.36
1832;BME280;1680;48.106;11.708;2023-05-29T09:52:56;95604.09;;;23.12;41.00
1832;BME280;1680;48.106;11.708;2023-05-29T09:55:24;95596.25;;;23.16;40.29
1832;BME280;1680;48.106;11.708;2023-05-29T09:57:53;95610.44;;;23.30;40.24
1832;BME280;1680;48.106;11.708;2023-05-29T10:00:21;95607.13;;;23.33;41.99
1832;BME280;1680;48.106;11.708;2023-05-29T10:02:49;95614.16;;;23.55;41.16
1832;BME280;1680;48.106;11.708;2023-05-29T10:05:17;95614.34;;;23.46;39.39
1832;BME280;1680;48.106;11.708;2023-05-29T10:07:49;95606.56;;;23.71;38.94
1832;BME280;1680;48.106;11.708;2023-05-29T10:10:18;95618.59;;;23.60;38.59
1832;BME280;1680;48.106;11.708;2023-05-29T10:12:48;95612.16;;;23.61;39.08
1832;BME280;1680;48.106;11.708;2023-05-29T10:15:16;95610.75;;;23.63;39.56
1832;BME280;1680;48.106;11.708;2023-05-29T10:17:50;95601.69;;;23.86;38.35
1832;BME280;1680;48.106;11.708;2023-05-29T10:20:20;95591.75;;;23.52;37.43
1832;BME280;1680;48.106;11.708;2023-05-29T10:22:52;95596.00;;;23.52;38.53
1832;BME280;1680;48.106;11.708;2023-05-29T10:25:22;95600.44;;;23.57;38.70
1832;BME280;1680;48.106;11.708;2023-05-29T10:27:50;95595.16;;;23.65;39.98
1832;BME280;1680;48.106;11.708;2023-05-29T10:30:27;95601.63;;;23.64;39.40
1832;BME280;1680;48.106;11.708;2023-05-29T10:33:15;95597.03;;;23.78;38.88
1832;BME280;1680;48.106;11.708;2023-05-29T10:35:53;95596.59;;;23.98;39.05
1832;BME280;1680;48.106;11.708;2023-05-29T10:38:24;95601.69;;;24.08;37.15
1832;BME280;1680;48.106;11.708;2023-05-29T10:40:51;95590.75;;;24.18;38.66
1832;BME280;1680;48.106;11.708;2023-05-29T10:43:36;95592.56;;;24.09;37.25
1832;BME280;1680;48.106;11.708;2023-05-29T10:46:05;95599.03;;;24.30;36.72
1832;BME280;1680;48.106;11.708;2023-05-29T10:48:40;95598.59;;;24.37;38.23
1832;BME280;1680;48.106;11.708;2023-05-29T10:51:24;95612.91;;;24.32;37.24
1832;BME280;1680;48.106;11.708;2023-05-29T10:53:52;95601.75;;;24.39;37.66
1832;BME280;1680;48.106;11.708;2023-05-29T10:56:23;95597.56;;;24.46;36.44
1832;BME280;1680;48.106;11.708;2023-05-29T10:58:55;95594.63;;;24.56;35.43
1832;BME280;1680;48.106;11.708;2023-05-29T11:01:23;95585.22;;;24.45;36.38
1832;BME280;1680;48.106;11.708;2023-05-29T11:03:51;95594.69;;;24.73;36.40
1832;BME280;1680;48.106;11.708;2023-05-29T11:06:21;95591.66;;;24.66;35.76
1832;BME280;1680;48.106;11.708;2023-05-29T11:08:54;95592.69;;;24.78;35.66
1832;BME280;1680;48.106;11.708;2023-05-29T11:11:31;95600.00;;;24.95;35.71
1832;BME280;1680;48.106;11.708;2023-05-29T11:14:02;95598.53;;;24.80;34.99
1832;BME280;1680;48.106;11.708;2023-05-29T11:16:39;95593.94;;;24.81;35.16
1832;BME280;1680;48.106;11.708;2023-05-29T11:19:08;95603.09;;;24.80;34.91
1832;BME280;1680;48.106;11.708;2023-05-29T11:21:49;95596.00;;;24.84;34.71
1832;BME280;1680;48.106;11.708;2023-05-29T11:24:22;95576.53;;;24.70;34.14
1832;BME280;1680;48.106;11.708;2023-05-29T11:26:51;95594.22;;;24.71;34.64
1832;BME280;1680;48.106;11.708;2023-05-29T11:29:23;95597.22;;;24.69;33.98
1832;BME280;1680;48.106;11.708;2023-05-29T11:31:55;95602.97;;;24.85;33.61
1832;BME280;1680;48.106;11.708;2023-05-29T11:34:28;95593.16;;;24.80;33.59
1832;BME280;1680;48.106;11.708;2023-05-29T11:36:58;95595.19;;;24.75;34.47
1832;BME280;1680;48.106;11.708;2023-05-29T11:39:25;95600.81;;;24.95;35.49
1832;BME280;1680;48.106;11.708;2023-05-29T11:41:54;95601.56;;;25.26;33.99
1832;BME280;1680;48.106;11.708;2023-05-29T11:44:24;95602.25;;;25.49;35.10
1832;BME280;1680;48.106;11.708;2023-05-29T11:46:59;95602.88;;;25.54;34.21
1832;BME280;1680;48.106;11.708;2023-05-29T11:49:28;95599.19;;;25.16;32.93
1832;BME280;1680;48.106;11.708;2023-05-29T11:52:07;95600.00;;;25.34;32.17
1832;BME280;1680;48.106;11.708;2023-05-29T11:54:34;95602.56;;;25.39;32.83
1832;BME280;1680;48.106;11.708;2023-05-29T11:57:03;95599.22;;;25.42;31.41
1832;BME280;1680;48.106;11.708;2023-05-29T11:59:31;95591.81;;;25.39;32.25
1832;BME280;1680;48.106;11.708;2023-05-29T12:01:59;95602.69;;;25.34;32.40
1832;BME280;1680;48.106;11.708;2023-05-29T12:04:26;95592.78;;;25.59;34.15
1832;BME280;1680;48.106;11.708;2023-05-29T12:06:53;95592.50;;;25.78;32.39
1832;BME280;1680;48.106;11.708;2023-05-29T12:09:25;95594.91;;;25.96;31.11
1832;BME280;1680;48.106;11.708;2023-05-29T12:11:54;95590.13;;;26.10;31.41
1832;BME280;1680;48.106;11.708;2023-05-29T12:14:21;95592.97;;;25.88;31.47
1832;BME280;1680;48.106;11.708;2023-05-29T12:16:48;95598.69;;;25.95;32.45
1832;BME280;1680;48.106;11.708;2023-05-29T12:19:15;95602.31;;;26.08;31.26
1832;BME280;1680;48.106;11.708;2023-05-29T12:21:43;95584.13;;;25.96;31.10
1832;BME280;1680;48.106;11.708;2023-05-29T12:24:10;95594.09;;;25.96;29.77
1832;BME280;1680;48.106;11.708;2023-05-29T12:26:39;95587.31;;;25.98;31.12
1832;BME280;1680;48.106;11.708;2023-05-29T12:29:06;95590.00;;;25.98;30.86
1832;BME280;1680;48.106;11.708;2023-05-29T12:31:33;95576.84;;;26.14;30.55
1832;BME280;1680;48.106;11.708;2023-05-29T12:34:01;95585.72;;;26.14;30.01
1832;BME280;1680;48.106;11.708;2023-05-29T12:36:28;95585.41;;;25.99;30.90
1832;BME280;1680;48.106;11.708;2023-05-29T12:38:56;95583.16;;;26.18;30.79
1832;BME280;1680;48.106;11.708;2023-05-29T12:41:25;95532.56;;;26.11;30.18
1832;BME280;1680;48.106;11.708;2023-05-29T12:43:55;95578.06;;;26.33;29.05
1832;BME280;1680;48.106;11.708;2023-05-29T12:46:23;95582.81;;;26.53;30.08
1832;BME280;1680;48.106;11.708;2023-05-29T12:48:52;95584.41;;;26.20;30.04
1832;BME280;1680;48.106;11.708;2023-05-29T12:51:23;95584.41;;;26.37;31.34
1832;BME280;1680;48.106;11.708;2023-05-29T12:53:51;95588.47;;;26.60;32.57
1832;BME280;1680;48.106;11.708;2023-05-29T12:56:21;95579.19;;;26.95;30.35
1832;BME280;1680;48.106;11.708;2023-05-29T12:58:49;95580.25;;;27.02;30.07
1832;BME280;1680;48.106;11.708;2023-05-29T13:01:18;95586.75;;;27.10;30.31
1832;BME280;1680;48.106;11.708;2023-05-29T13:03:46;95576.63;;;27.07;28.18
1832;BME280;1680;48.106;11.708;2023-05-29T13:06:13;95579.81;;;26.92;28.72
1832;BME280;1680;48.106;11.708;2023-05-29T13:08:40;95580.75;;;26.96;28.45
1832;BME280;1680;48.106;11.708;2023-05-29T13:11:08;95575.72;;;26.94;28.81
1832;BME280;1680;48.106;11.708;2023-05-29T13:13:35;95579.19;;;26.95;27.96
1832;BME280;1680;48.106;11.708;2023-05-29T13:16:02;95572.03;;;26.99;28.37
1832;BME280;1680;48.106;11.708;2023-05-29T13:18:31;95574.41;;;27.09;27.58